Details for Jet2 at EGCC




Go Back


Latest METAR
Local Time

EGCC 180420Z AUTO VRB02KT 9999 NCD 04/03 Q1019 NOSIG

18/02/2018, 04:33:17

Description
Results
Jet2 Logo
Number of Pilots based at EGCC
2 Pilots Based here
Number of Jet2 Flights Departed from EGCC
4 Flights Departed
Number of Jet2 Flights Arrived at EGCC
3 Flights Arrived
Number of Jet2 Schedules Departing from EGCC
37 Schedules
Number of Jet2 Schedules Arriving at EGCC
36 Schedules
Number of Jet2 Schedules Departing from EGCC availible today
11 Schedules Today
Number of Jet2 Schedules Arriving at EGCC availible today
11 Schedules Today
Average Landing Rate at EGCC
-219 fpm
Jet2 Average Landing Rate at EGCC
-205 fpm
Total Fuel Purchased at EGCC by Jet2
30,782.13 kgs / 67,862.28 lbs

Pilots Based at EGCC


Pilot ID
Pilot Name
Pilot Rank
No. of Flights
No. of Flying Hours
Kevin Himsworth
6
13.05
Andrew Sutcliffe
330
1252.49
Content